Hauptseite
METAR-TAF:

METAR-TAF

Flughäfen :

Flugplatz Vöslau-Kottingbrunn

Bad Vöslau, Österreich

Breite: 47-57-52N, Länge: 016-15-34E, Höhe: 233 m

Beobachtung

Neuester Wetterbericht von vor 29 Minuten, um 08:00 UTC
Wind 4 kt aus Ost
Temperatur 26°C
Luftfeuchtigkeit 45%
Luftdruck

METAR: LOAV 210800Z 10004KT 40KM FEW040CU SCT300CI 26/13

Zeit: 10:29 (08:29 UTC)

Prognose

Neuester Wetterbericht von vor 1 Stunde und 29 Minuten, um 07:00 UTC
Gültige Prognose vom 21 um 07 UTC bis 21 um 15 UTC
Wind 4 kt aus Ost/Südost
Sichtweite 10 km oder mehr
Leicht bewölkt in der Höhe von 30000 ft
Zeitweise
vom 21 um 14 UTC bis 21 um 15 UTC
Leicht bewölkt in der Höhe von 5000 ft, Kumulonimbus.

TAF: LOAV 210700Z 2107/2115 11004KT 9999 FEW300 TEMPO 2114/2115 FEW050CB

Wetterbeobachtungen und Prognosen von mehr als 4000 Flughäfen (METAR und TAF Bericht).

Die verfügbaren Stationen werden durch gelbe und rote Markierungen auf der Karte dargestellt.

Führen Sie die Maus auf sie, um den Namen der Station zu sehen.

Darauf klicken, um die Beobachtung von Wetterbeobachtungen und Prognosen zu sehen.

Um die Karte zu ändern : klicken Sie auf den grünen Tasten mit einem schwarzen Kreuz Zum Vergrößern, auf den grünen Button mit einem Gedankenstrich zu verkleinern, oder auf die grünen Pfeile für benachbarte Karten.


METAR-TAF: